Contact Us:
Email: info@sawbill.com
Phone: (218)663-7150
Fax: (218)663-7980
Mail: 4620 Sawbill Trail
Box 2129
Tofte, MN 55615


Powered by
Movable Type 3.15
 
Sawbill Weather History Archives: October 2008
Current Sawbill Weather History | « September 2008 | November 2008 »


Date

High
Temperature

Low
Temperature

Barometric
Pressure

Relative
Humidity 7AM

9 AM
Temperature

Moisture

Snow

10/31/08 47 27 30.45 81% 28 0
10/30/08 63 37 30.30 70% 38 0
10/29/08 40 28 30.09 76% 28 0
10/28/08 38 26 30.15 73% 27 0
10/27/08 33 28 30.27 69% 29 0
10/26/08 39 32 29.89 71% 33 0
10/25/08 46 37 29.44 97% 37 .19" Trace
10/24/08 42 39 29.53 98% 41 .39"
10/23/08 47 34 30.03 93% 39 .03"
10/22/08 41 31 30.39 81% 35 0
10/21/08 39 28 30.39 93% 37 0
10/20/08 43 28 30.42 86% 28 0
10/19/08 50 37 30.27 94% 37 .03"
10/18/08 50 36 29.94 87% 44 .03"
10/17/08 45 33 30.24 98% 36 0
10/16/08 45 37 30.27 94% 38 .02"
10/15/08 47 37 30.24 93% 38 0
10/14/08 49 36 29.88 98% 40 0
10/13/08 62 37 30.09 87% 37 .27"
10/12/08 61 55 30.09 98% 59 .04"
10/11/08 55 45 30.21 98% 55 .35"
10/10/08 45 35 30.21 98% 45 .21"
10/9/08 49 35 30.15 87% 35 0
10/8/08 56 44 29.74 60% 44 0
10/7/08 53 46 29.82 98% 46 .7"
10/6/08 51 46 30.09 98% 50 .02"
10/5/08 54 39 30.24 98% 46 Trace
10/4/08 52 32 30.27 97% 39.6 0
10/3/08 45 29 30.24 90% 32 0
10/2/08 48 32 30.09 82% 34.9 .01"
10/1/08 47 40 29.88 97% 45 .12"
 


Home I Trip Planning I Rentals and Outfitting I Reservations I Campgrounds I Sawbill Store I Sawbill News I Contact

© 1997 - 2017, Sawbill Canoe Outfitters, Inc. I Privacy Policy